createdAt,value
2018-12-18T00:00:34.656Z,101488.36
2018-12-18T00:03:01.436Z,101481.44
2018-12-18T00:05:34.244Z,101475.91
2018-12-18T00:08:01.352Z,101472.75
2018-12-18T00:10:33.691Z,101478.10
2018-12-18T00:13:00.460Z,101483.72
2018-12-18T00:15:27.212Z,101482.13
2018-12-18T00:17:54.080Z,101481.17
2018-12-18T00:20:20.822Z,101478.22
2018-12-18T00:22:47.584Z,101476.93
2018-12-18T00:25:14.324Z,101468.08
2018-12-18T00:27:41.081Z,101461.48
2018-12-18T00:30:07.839Z,101459.55
2018-12-18T00:32:34.604Z,101458.08
2018-12-18T00:35:01.362Z,101458.61
2018-12-18T00:37:28.127Z,101463.73
2018-12-18T00:39:54.881Z,101461.06
2018-12-18T00:42:21.653Z,101450.13
2018-12-18T00:44:48.401Z,101454.47
2018-12-18T00:47:15.140Z,101448.88
2018-12-18T00:49:41.896Z,101452.52
2018-12-18T00:52:08.636Z,101451.96
2018-12-18T00:54:35.392Z,101449.27
2018-12-18T00:57:02.148Z,101442.27
2018-12-18T00:59:28.960Z,101439.67
2018-12-18T01:02:00.144Z,101443.95
2018-12-18T01:04:27.328Z,101441.16
2018-12-18T01:06:54.076Z,101442.77
2018-12-18T01:09:20.852Z,101441.19
2018-12-18T01:11:47.601Z,101438.30
2018-12-18T01:14:14.369Z,101436.69
2018-12-18T01:16:41.156Z,101433.53
2018-12-18T01:19:07.909Z,101432.95
2018-12-18T01:21:34.660Z,101437.23
2018-12-18T01:24:01.437Z,101439.35
2018-12-18T01:26:28.176Z,101438.34
2018-12-18T01:28:54.948Z,101433.92
2018-12-18T01:31:21.696Z,101426.10
2018-12-18T01:33:48.461Z,101425.70
2018-12-18T01:36:15.195Z,101433.88
2018-12-18T01:38:41.950Z,101428.75
2018-12-18T01:41:08.692Z,101431.30
2018-12-18T01:43:35.460Z,101434.00
2018-12-18T01:46:02.200Z,101432.68
2018-12-18T01:48:28.956Z,101430.47
2018-12-18T01:50:55.708Z,101430.88
2018-12-18T01:53:22.468Z,101425.99
2018-12-18T01:55:49.205Z,101422.91
2018-12-18T01:58:15.964Z,101427.83
2018-12-18T02:00:42.708Z,101425.02
2018-12-18T02:03:09.492Z,101423.73
2018-12-18T02:05:36.240Z,101422.31
2018-12-18T02:08:02.986Z,101421.86
2018-12-18T02:10:29.753Z,101420.48
2018-12-18T02:12:56.500Z,101410.80
2018-12-18T02:15:23.272Z,101417.78
2018-12-18T02:17:50.011Z,101404.60
2018-12-18T02:20:16.876Z,101412.05
2018-12-18T02:22:43.633Z,101408.38
2018-12-18T02:25:10.393Z,101405.91
2018-12-18T02:27:37.147Z,101399.69
2018-12-18T02:30:04.779Z,101398.64
2018-12-18T02:32:31.522Z,101400.23
2018-12-18T02:34:58.284Z,101393.70
2018-12-18T02:37:25.033Z,101399.33
2018-12-18T02:39:51.789Z,101394.76
2018-12-18T02:42:18.544Z,101384.64
2018-12-18T02:44:45.344Z,101386.68
2018-12-18T02:47:12.082Z,101385.45
2018-12-18T02:49:38.856Z,101383.63
2018-12-18T02:52:05.595Z,101380.91
2018-12-18T02:54:32.360Z,101377.25
2018-12-18T02:56:59.099Z,101375.47
2018-12-18T02:59:25.890Z,101371.75
2018-12-18T03:01:52.652Z,101377.50
2018-12-18T03:04:21.793Z,101382.96
2018-12-18T03:06:46.160Z,101383.19
2018-12-18T03:09:12.921Z,101390.44
2018-12-18T03:11:39.668Z,101389.83
2018-12-18T03:14:06.425Z,101384.70
2018-12-18T03:16:33.172Z,101382.56
2018-12-18T03:18:59.944Z,101375.38
2018-12-18T03:21:26.697Z,101375.23
2018-12-18T03:23:53.468Z,101375.91
2018-12-18T03:26:20.210Z,101374.23
2018-12-18T03:28:46.977Z,101374.45
2018-12-18T03:31:13.725Z,101379.47
2018-12-18T03:33:40.492Z,101376.89
2018-12-18T03:36:07.233Z,101384.77
2018-12-18T03:38:33.987Z,101384.33
2018-12-18T03:41:00.729Z,101384.23
2018-12-18T03:43:27.472Z,101382.02
2018-12-18T03:45:54.246Z,101379.57
2018-12-18T03:48:20.981Z,101379.64
2018-12-18T03:50:47.744Z,101370.80
2018-12-18T03:53:14.481Z,101368.22
2018-12-18T03:55:41.244Z,101367.94
2018-12-18T03:58:07.985Z,101368.75
2018-12-18T04:00:34.752Z,101373.06
2018-12-18T04:03:01.514Z,101369.45
2018-12-18T04:05:28.276Z,101377.88
2018-12-18T04:07:55.024Z,101375.48
2018-12-18T04:10:21.797Z,101382.90
2018-12-18T04:12:48.533Z,101380.25
2018-12-18T04:15:15.303Z,101378.02
2018-12-18T04:17:42.041Z,101375.67
2018-12-18T04:20:08.800Z,101375.48
2018-12-18T04:22:35.542Z,101376.89
2018-12-18T04:25:02.316Z,101378.39
2018-12-18T04:27:29.054Z,101382.10
2018-12-18T04:29:55.824Z,101388.22
2018-12-18T04:32:22.565Z,101385.63
2018-12-18T04:34:49.325Z,101379.89
2018-12-18T04:37:16.064Z,101376.44
2018-12-18T04:39:42.838Z,101374.12
2018-12-18T04:42:09.572Z,101374.03
2018-12-18T04:44:36.333Z,101374.53
2018-12-18T04:47:03.081Z,101369.41
2018-12-18T04:49:29.844Z,101372.03
2018-12-18T04:51:56.584Z,101370.22
2018-12-18T04:54:23.355Z,101374.80
2018-12-18T04:56:50.119Z,101367.57
2018-12-18T04:59:16.883Z,101367.41
2018-12-18T05:01:43.626Z,101362.13
2018-12-18T05:04:10.401Z,101356.13
2018-12-18T05:06:37.148Z,101351.09
2018-12-18T05:09:07.100Z,101349.66
2018-12-18T05:11:33.847Z,101338.03
2018-12-18T05:14:00.600Z,101339.90
2018-12-18T05:16:27.332Z,101346.32
2018-12-18T05:18:54.124Z,101353.64
2018-12-18T05:21:20.893Z,101351.54
2018-12-18T05:23:47.637Z,101355.37
2018-12-18T05:26:14.531Z,101356.11
2018-12-18T05:28:41.266Z,101365.86
2018-12-18T05:31:08.012Z,101363.30
2018-12-18T05:33:34.741Z,101366.14
2018-12-18T05:36:01.508Z,101376.59
2018-12-18T05:38:28.260Z,101376.00
2018-12-18T05:40:55.030Z,101383.32
2018-12-18T05:43:21.803Z,101382.44
2018-12-18T05:45:48.616Z,101384.11
2018-12-18T05:48:15.592Z,101385.30
2018-12-18T05:50:42.358Z,101387.85
2018-12-18T05:53:09.088Z,101385.00
2018-12-18T05:55:35.913Z,101382.48
2018-12-18T05:58:02.636Z,101383.95
2018-12-18T06:00:29.396Z,101383.80
2018-12-18T06:02:56.153Z,101384.66
2018-12-18T06:05:22.903Z,101378.05
2018-12-18T06:07:49.661Z,101378.02
2018-12-18T06:10:16.417Z,101384.05
2018-12-18T06:12:43.181Z,101380.20
2018-12-18T06:15:09.944Z,101384.23
2018-12-18T06:17:36.684Z,101387.80
2018-12-18T06:20:03.520Z,101390.66
2018-12-18T06:22:30.307Z,101387.56
2018-12-18T06:24:57.016Z,101382.87
2018-12-18T06:27:23.760Z,101384.75
2018-12-18T06:29:50.532Z,101383.95
2018-12-18T06:32:17.276Z,101387.70
2018-12-18T06:34:44.050Z,101390.53
2018-12-18T06:37:10.784Z,101381.12
2018-12-18T06:39:37.610Z,101384.50
2018-12-18T06:42:04.357Z,101385.41
2018-12-18T06:44:31.144Z,101389.88
2018-12-18T06:46:57.892Z,101373.40
2018-12-18T06:49:24.659Z,101376.58
2018-12-18T06:51:51.413Z,101370.23
2018-12-18T06:54:18.172Z,101363.81
2018-12-18T06:56:44.932Z,101366.91
2018-12-18T06:59:11.668Z,101368.89
2018-12-18T07:01:38.440Z,101360.55
2018-12-18T07:04:05.181Z,101350.02
2018-12-18T07:06:32.044Z,101355.28
2018-12-18T07:08:58.778Z,101349.18
2018-12-18T07:11:25.525Z,101350.38
2018-12-18T07:13:52.277Z,101347.16
2018-12-18T07:16:19.032Z,101344.02
2018-12-18T07:18:45.772Z,101346.95
2018-12-18T07:21:12.564Z,101350.36
2018-12-18T07:23:39.320Z,101346.88
2018-12-18T07:26:06.092Z,101357.73
2018-12-18T07:28:32.836Z,101357.16
2018-12-18T07:30:59.610Z,101344.95
2018-12-18T07:33:26.360Z,101351.36
2018-12-18T07:35:53.139Z,101349.42
2018-12-18T07:38:19.872Z,101348.68
2018-12-18T07:40:46.637Z,101342.06
2018-12-18T07:43:13.392Z,101353.33
2018-12-18T07:45:40.154Z,101343.23
2018-12-18T07:48:06.967Z,101345.92
2018-12-18T07:50:33.664Z,101342.46
2018-12-18T07:53:00.444Z,101349.33
2018-12-18T07:55:27.220Z,101346.25
2018-12-18T07:57:53.971Z,101346.91
2018-12-18T08:00:20.737Z,101346.03
2018-12-18T08:02:47.484Z,101347.63
2018-12-18T08:05:14.244Z,101347.95
2018-12-18T08:07:40.988Z,101349.55
2018-12-18T08:10:07.763Z,101353.79
2018-12-18T08:12:34.507Z,101357.00
2018-12-18T08:15:01.252Z,101371.67
2018-12-18T08:17:28.002Z,101371.09
2018-12-18T08:19:54.768Z,101370.01
2018-12-18T08:22:21.504Z,101362.78
2018-12-18T08:24:48.262Z,101358.34
2018-12-18T08:27:15.011Z,101353.95
2018-12-18T08:29:41.748Z,101351.98
2018-12-18T08:32:09.569Z,101345.91
2018-12-18T08:34:35.260Z,101342.71
2018-12-18T08:37:02.024Z,101343.81
2018-12-18T08:39:28.775Z,101333.38
2018-12-18T08:41:55.517Z,101325.36
2018-12-18T08:44:22.249Z,101329.29
2018-12-18T08:46:49.020Z,101318.01
2018-12-18T08:49:15.741Z,101312.52
2018-12-18T08:51:42.504Z,101316.86
2018-12-18T08:54:09.260Z,101313.12
2018-12-18T08:56:36.065Z,101313.93
2018-12-18T08:59:02.792Z,101302.09
2018-12-18T09:01:29.544Z,101303.86
2018-12-18T09:03:56.288Z,101308.91
2018-12-18T09:06:23.052Z,101310.63
2018-12-18T09:08:49.799Z,101318.63
2018-12-18T09:11:16.557Z,101319.39
2018-12-18T09:13:43.292Z,101315.70
2018-12-18T09:16:15.864Z,101298.25
2018-12-18T09:18:42.604Z,101291.85
2018-12-18T09:21:09.373Z,101300.84
2018-12-18T09:23:36.113Z,101297.36
2018-12-18T09:26:02.876Z,101290.48
2018-12-18T09:28:29.609Z,101293.88
2018-12-18T09:30:56.365Z,101289.19
2018-12-18T09:33:23.120Z,101292.32
2018-12-18T09:35:50.037Z,101279.23
2018-12-18T09:38:22.304Z,101276.09
2018-12-18T09:40:54.924Z,101272.48
2018-12-18T09:43:27.440Z,101269.88
2018-12-18T09:45:54.208Z,101277.17
2018-12-18T09:48:21.024Z,101274.06
2018-12-18T09:50:47.788Z,101268.38
2018-12-18T09:53:14.680Z,101260.59
2018-12-18T09:55:41.451Z,101248.08
2018-12-18T09:58:11.072Z,101243.42
2018-12-18T10:00:37.900Z,101232.88
2018-12-18T10:03:04.664Z,101217.65
2018-12-18T10:05:31.416Z,101206.07
2018-12-18T10:07:58.176Z,101210.28
2018-12-18T10:10:24.982Z,101209.34
2018-12-18T10:12:55.460Z,101200.78
2018-12-18T10:15:22.708Z,101207.22
2018-12-18T10:17:49.455Z,101214.92
2018-12-18T10:20:16.192Z,101210.32
2018-12-18T10:22:42.944Z,101209.83
2018-12-18T10:25:09.674Z,101200.62
2018-12-18T10:27:36.408Z,101199.17
2018-12-18T10:30:03.200Z,101193.00
2018-12-18T10:32:29.931Z,101187.31
2018-12-18T10:34:56.689Z,101182.02
2018-12-18T10:37:23.421Z,101179.14
2018-12-18T10:39:50.184Z,101166.78
2018-12-18T10:42:16.927Z,101162.30
2018-12-18T10:44:43.680Z,101165.02
2018-12-18T10:47:10.425Z,101163.79
2018-12-18T10:49:37.184Z,101157.36
2018-12-18T10:52:03.912Z,101154.20
2018-12-18T10:54:30.689Z,101149.14
2018-12-18T10:56:57.434Z,101141.92
2018-12-18T10:59:24.193Z,101140.64
2018-12-18T11:01:50.939Z,101136.41
2018-12-18T11:04:17.700Z,101128.08
2018-12-18T11:06:44.440Z,101124.79
2018-12-18T11:09:11.216Z,101117.20
2018-12-18T11:11:37.969Z,101108.73
2018-12-18T11:14:04.832Z,101094.94
2018-12-18T11:16:37.108Z,101087.22
2018-12-18T11:18:58.340Z,101088.42
2018-12-18T11:21:25.079Z,101088.53
2018-12-18T11:23:51.837Z,101085.80
2018-12-18T11:26:18.572Z,101074.09
2018-12-18T11:28:45.350Z,101077.66
2018-12-18T11:31:12.107Z,101067.62
2018-12-18T11:33:38.868Z,101046.44
2018-12-18T11:36:05.606Z,101039.64
2018-12-18T11:38:32.365Z,101030.39
2018-12-18T11:40:59.104Z,101030.98
2018-12-18T11:43:25.872Z,101033.35
2018-12-18T11:45:52.608Z,101033.59
2018-12-18T11:48:19.392Z,101024.45
2018-12-18T11:50:46.141Z,101015.42
2018-12-18T11:53:12.873Z,101012.87
2018-12-18T11:55:39.664Z,101010.55
2018-12-18T11:58:06.407Z,101009.25
2018-12-18T12:00:33.184Z,101003.58
2018-12-18T12:02:59.934Z,100989.11
2018-12-18T12:05:26.706Z,100995.29
2018-12-18T12:07:53.444Z,100986.72
2018-12-18T12:10:20.220Z,100984.84
2018-12-18T12:12:46.975Z,100983.80
2018-12-18T12:15:13.740Z,100983.00
2018-12-18T12:17:40.481Z,100981.63
2018-12-18T12:20:07.252Z,100978.70
2018-12-18T12:22:33.996Z,100976.22
2018-12-18T12:25:00.860Z,100974.46
2018-12-18T12:27:32.568Z,100970.78
2018-12-18T12:29:59.328Z,100965.80
2018-12-18T12:32:26.120Z,100948.14
2018-12-18T12:34:52.888Z,100950.15
2018-12-18T12:37:19.643Z,100950.58
2018-12-18T12:39:46.412Z,100952.02
2018-12-18T12:42:13.507Z,100935.96
2018-12-18T12:44:40.273Z,100935.96
2018-12-18T12:47:07.021Z,100932.95
2018-12-18T12:49:39.608Z,100931.95
2018-12-18T12:52:06.357Z,100927.59
2018-12-18T12:54:33.124Z,100923.47
2018-12-18T12:56:59.880Z,100918.91
2018-12-18T12:59:26.640Z,100915.25
2018-12-18T13:01:53.459Z,100909.70
2018-12-18T13:04:20.217Z,100891.31
2018-12-18T13:06:47.273Z,100886.39
2018-12-18T13:09:14.041Z,100886.03
2018-12-18T13:11:40.777Z,100883.89
2018-12-18T13:14:07.636Z,100885.73
2018-12-18T13:16:36.002Z,100877.56
2018-12-18T13:19:02.817Z,100875.58
2018-12-18T13:21:29.785Z,100863.14
2018-12-18T13:24:00.592Z,100855.70
2018-12-18T13:26:27.441Z,100859.01
2018-12-18T13:28:54.258Z,100852.98
2018-12-18T13:31:21.163Z,100848.72
2018-12-18T13:33:48.007Z,100848.14
2018-12-18T13:36:14.812Z,100847.68
2018-12-18T13:38:41.640Z,100838.34
2018-12-18T13:41:09.254Z,100832.05
2018-12-18T13:43:36.041Z,100836.91
2018-12-18T13:46:02.882Z,100826.11
2018-12-18T13:48:29.704Z,100821.52
2018-12-18T13:50:56.549Z,100817.96
2018-12-18T13:53:23.333Z,100810.33
2018-12-18T13:55:50.104Z,100813.17
2018-12-18T13:58:16.876Z,100807.67
2018-12-18T14:00:43.725Z,100800.55
2018-12-18T14:03:10.496Z,100804.84
2018-12-18T14:05:37.337Z,100786.52
2018-12-18T14:08:04.040Z,100775.44
2018-12-18T14:10:30.809Z,100772.86
2018-12-18T14:12:57.560Z,100768.56
2018-12-18T14:15:24.669Z,100756.53
2018-12-18T14:17:51.444Z,100747.95
2018-12-18T14:20:18.218Z,100752.30
2018-12-18T14:22:45.101Z,100757.22
2018-12-18T14:25:11.844Z,100752.59
2018-12-18T14:27:38.592Z,100751.89
2018-12-18T14:30:05.380Z,100745.80
2018-12-18T14:32:32.114Z,100744.08
2018-12-18T14:34:58.872Z,100742.00
2018-12-18T14:37:25.629Z,100743.41
2018-12-18T14:39:52.392Z,100740.33
2018-12-18T14:42:19.144Z,100751.50
2018-12-18T14:44:45.900Z,100737.61
2018-12-18T14:47:12.676Z,100738.15
2018-12-18T14:49:39.536Z,100735.06
2018-12-18T14:52:06.389Z,100730.32
2018-12-18T14:54:33.211Z,100734.20
2018-12-18T14:57:00.084Z,100723.69
2018-12-18T14:59:26.829Z,100713.17
2018-12-18T15:01:53.660Z,100710.77
2018-12-18T15:04:20.497Z,100704.78
2018-12-18T15:06:47.272Z,100703.36
2018-12-18T15:09:14.024Z,100699.47
2018-12-18T15:11:40.810Z,100702.23
2018-12-18T15:14:07.568Z,100704.59
2018-12-18T15:16:34.416Z,100701.64
2018-12-18T15:19:01.233Z,100700.76
2018-12-18T15:21:28.042Z,100703.09
2018-12-18T15:23:54.782Z,100700.16
2018-12-18T15:26:21.646Z,100699.50
2018-12-18T15:28:48.501Z,100694.93
2018-12-18T15:31:15.260Z,100700.28
2018-12-18T15:33:42.025Z,100692.20
2018-12-18T15:36:08.858Z,100703.22
2018-12-18T15:38:35.620Z,100703.23
2018-12-18T15:41:02.396Z,100698.75
2018-12-18T15:43:29.160Z,100689.97
2018-12-18T15:45:55.920Z,100689.09
2018-12-18T15:48:22.674Z,100692.56
2018-12-18T15:50:49.432Z,100694.04
2018-12-18T15:53:16.184Z,100691.52
2018-12-18T15:55:42.934Z,100686.86
2018-12-18T15:58:09.809Z,100676.27
2018-12-18T16:00:36.572Z,100673.79
2018-12-18T16:03:03.324Z,100680.27
2018-12-18T16:05:30.070Z,100678.98
2018-12-18T16:07:56.838Z,100680.63
2018-12-18T16:10:23.592Z,100667.69
2018-12-18T16:12:50.385Z,100665.41
2018-12-18T16:15:17.136Z,100656.44
2018-12-18T16:17:43.891Z,100658.64
2018-12-18T16:20:10.651Z,100649.25
2018-12-18T16:22:37.435Z,100648.55
2018-12-18T16:25:04.252Z,100654.39
2018-12-18T16:27:31.015Z,100650.45
2018-12-18T16:29:57.773Z,100651.45
2018-12-18T16:32:24.580Z,100652.56
2018-12-18T16:34:51.358Z,100651.67
2018-12-18T16:37:22.943Z,100653.17
2018-12-18T16:39:44.986Z,100659.88
2018-12-18T16:42:11.783Z,100664.50
2018-12-18T16:44:38.546Z,100661.44
2018-12-18T16:47:05.317Z,100657.95
2018-12-18T16:49:32.073Z,100660.76
2018-12-18T16:51:58.856Z,100658.77
2018-12-18T16:54:25.604Z,100658.19
2018-12-18T16:56:52.380Z,100662.69
2018-12-18T16:59:19.144Z,100668.14
2018-12-18T17:01:45.984Z,100665.88
2018-12-18T17:04:12.736Z,100664.86
2018-12-18T17:06:39.544Z,100666.73
2018-12-18T17:09:06.401Z,100664.09
2018-12-18T17:11:33.175Z,100666.95
2018-12-18T17:13:59.953Z,100670.48
2018-12-18T17:16:26.692Z,100675.77
2018-12-18T17:18:53.497Z,100674.03
2018-12-18T17:21:20.252Z,100674.58
2018-12-18T17:23:47.012Z,100678.52
2018-12-18T17:26:13.764Z,100673.33
2018-12-18T17:28:40.540Z,100672.34
2018-12-18T17:31:07.288Z,100678.70
2018-12-18T17:33:34.081Z,100673.08
2018-12-18T17:36:00.830Z,100677.40
2018-12-18T17:38:27.611Z,100678.77
2018-12-18T17:40:54.364Z,100664.05
2018-12-18T17:43:21.127Z,100662.59
2018-12-18T17:45:47.873Z,100662.03
2018-12-18T17:48:14.652Z,100660.48
2018-12-18T17:50:41.393Z,100648.27
2018-12-18T17:53:08.152Z,100641.20
2018-12-18T17:55:34.944Z,100636.75
2018-12-18T17:58:01.824Z,100640.02
2018-12-18T18:00:28.580Z,100629.01
2018-12-18T18:02:55.338Z,100627.23
2018-12-18T18:05:22.100Z,100637.88
2018-12-18T18:07:48.900Z,100635.89
2018-12-18T18:10:15.644Z,100636.48
2018-12-18T18:12:42.454Z,100634.00
2018-12-18T18:15:09.228Z,100625.42
2018-12-18T18:17:36.017Z,100624.09
2018-12-18T18:20:02.765Z,100618.14
2018-12-18T18:22:29.557Z,100612.97
2018-12-18T18:24:56.292Z,100616.36
2018-12-18T18:27:23.061Z,100611.73
2018-12-18T18:29:49.844Z,100621.75
2018-12-18T18:32:16.593Z,100628.11
2018-12-18T18:34:43.557Z,100630.30
2018-12-18T18:37:10.322Z,100630.58
2018-12-18T18:39:37.097Z,100641.78
2018-12-18T18:42:03.853Z,100641.66
2018-12-18T18:44:30.684Z,100640.97
2018-12-18T18:46:57.436Z,100641.98
2018-12-18T18:49:24.308Z,100631.95
2018-12-18T18:51:51.096Z,100625.03
2018-12-18T18:54:17.880Z,100622.83
2018-12-18T18:56:44.630Z,100621.88
2018-12-18T18:59:11.448Z,100612.47
2018-12-18T19:01:38.196Z,100597.39
2018-12-18T19:04:04.989Z,100583.59
2018-12-18T19:06:31.771Z,100587.59
2018-12-18T19:08:58.589Z,100576.67
2018-12-18T19:11:25.336Z,100569.63
2018-12-18T19:13:52.116Z,100572.01
2018-12-18T19:16:18.856Z,100568.64
2018-12-18T19:18:45.653Z,100559.05
2018-12-18T19:21:12.409Z,100557.55
2018-12-18T19:23:39.200Z,100562.48
2018-12-18T19:26:06.352Z,100566.63
2018-12-18T19:28:33.190Z,100568.02
2018-12-18T19:30:59.961Z,100566.90
2018-12-18T19:33:26.717Z,100553.49
2018-12-18T19:35:53.491Z,100561.39
2018-12-18T19:38:20.265Z,100568.45
2018-12-18T19:40:47.024Z,100570.34
2018-12-18T19:43:13.807Z,100571.42
2018-12-18T19:45:40.553Z,100577.64
2018-12-18T19:48:07.672Z,100575.77
2018-12-18T19:50:34.435Z,100565.72
2018-12-18T19:53:01.202Z,100555.23
2018-12-18T19:55:28.002Z,100561.77
2018-12-18T19:57:54.789Z,100568.69
2018-12-18T20:00:21.564Z,100576.52
2018-12-18T20:02:48.324Z,100574.83
2018-12-18T20:05:15.122Z,100568.86
2018-12-18T20:07:41.856Z,100563.71
2018-12-18T20:10:08.620Z,100557.42
2018-12-18T20:12:35.360Z,100554.12
2018-12-18T20:15:02.381Z,100552.58
2018-12-18T20:17:29.136Z,100552.81
2018-12-18T20:19:55.908Z,100556.42
2018-12-18T20:22:22.669Z,100550.94
2018-12-18T20:24:49.449Z,100544.69
2018-12-18T20:27:16.204Z,100543.75
2018-12-18T20:29:42.972Z,100533.72
2018-12-18T20:32:09.756Z,100533.30
2018-12-18T20:34:36.524Z,100528.38
2018-12-18T20:37:03.277Z,100530.06
2018-12-18T20:39:30.045Z,100524.20
2018-12-18T20:41:56.792Z,100529.38
2018-12-18T20:44:23.568Z,100524.80
2018-12-18T20:46:50.346Z,100522.76
2018-12-18T20:49:17.116Z,100515.53
2018-12-18T20:51:43.861Z,100518.25
2018-12-18T20:54:10.612Z,100525.00
2018-12-18T20:56:37.372Z,100512.23
2018-12-18T20:59:04.423Z,100506.10
2018-12-18T21:01:30.906Z,100514.16
2018-12-18T21:03:57.672Z,100520.92
2018-12-18T21:06:24.405Z,100518.87
2018-12-18T21:08:51.213Z,100523.67
2018-12-18T21:11:17.965Z,100519.14
2018-12-18T21:13:44.752Z,100516.20
2018-12-18T21:16:11.497Z,100503.55
2018-12-18T21:18:38.261Z,100507.94
2018-12-18T21:21:05.075Z,100502.88
2018-12-18T21:23:31.832Z,100497.84
2018-12-18T21:25:58.626Z,100494.91
2018-12-18T21:28:25.376Z,100494.05
2018-12-18T21:30:52.176Z,100489.34
2018-12-18T21:33:18.997Z,100479.70
2018-12-18T21:35:45.752Z,100479.99
2018-12-18T21:38:12.505Z,100479.20
2018-12-18T21:40:39.287Z,100472.49
2018-12-18T21:43:06.144Z,100461.72
2018-12-18T21:45:32.924Z,100464.92
2018-12-18T21:47:59.688Z,100460.44
2018-12-18T21:50:26.460Z,100469.81
2018-12-18T21:52:53.216Z,100467.45
2018-12-18T21:55:20.002Z,100473.53
2018-12-18T21:57:46.837Z,100471.33
2018-12-18T22:00:13.588Z,100470.50
2018-12-18T22:02:40.363Z,100484.81
2018-12-18T22:05:07.145Z,100478.19
2018-12-18T22:07:33.939Z,100473.00
2018-12-18T22:10:00.713Z,100468.30
2018-12-18T22:12:27.477Z,100471.33
2018-12-18T22:14:54.246Z,100467.77
2018-12-18T22:17:20.977Z,100466.19
2018-12-18T22:19:47.793Z,100465.52
2018-12-18T22:22:14.524Z,100457.50
2018-12-18T22:24:41.332Z,100464.03
2018-12-18T22:27:08.081Z,100463.61
2018-12-18T22:29:34.929Z,100469.44
2018-12-18T22:32:01.781Z,100465.86
2018-12-18T22:34:28.585Z,100456.34
2018-12-18T22:36:55.388Z,100456.83
2018-12-18T22:39:22.168Z,100463.03
2018-12-18T22:41:48.941Z,100465.30
2018-12-18T22:44:15.727Z,100464.89
2018-12-18T22:46:42.464Z,100450.21
2018-12-18T22:49:09.276Z,100452.88
2018-12-18T22:51:36.046Z,100445.92
2018-12-18T22:54:02.788Z,100453.57
2018-12-18T22:56:29.556Z,100449.09
2018-12-18T22:58:56.364Z,100460.52
2018-12-18T23:01:28.861Z,100446.23
2018-12-18T23:03:55.617Z,100432.54
2018-12-18T23:06:22.392Z,100427.42
2018-12-18T23:08:50.412Z,100439.47
2018-12-18T23:11:15.892Z,100444.23
2018-12-18T23:13:42.644Z,100430.13
2018-12-18T23:16:09.425Z,100420.36
2018-12-18T23:18:36.184Z,100421.17
2018-12-18T23:21:02.958Z,100431.33
2018-12-18T23:23:29.715Z,100423.48
2018-12-18T23:25:56.496Z,100422.62
2018-12-18T23:28:23.237Z,100422.11
2018-12-18T23:30:50.008Z,100417.22
2018-12-18T23:33:16.751Z,100415.00
2018-12-18T23:35:43.526Z,100415.50
2018-12-18T23:38:10.259Z,100404.42
2018-12-18T23:40:37.028Z,100406.51
2018-12-18T23:43:03.777Z,100415.43
2018-12-18T23:45:30.552Z,100422.09
2018-12-18T23:47:57.289Z,100416.69
2018-12-18T23:50:24.061Z,100421.16
2018-12-18T23:52:50.796Z,100416.98
2018-12-18T23:55:17.577Z,100408.01
2018-12-18T23:57:44.348Z,100406.05
